sensor_id;sensor_type;location;lat;lon;timestamp;P1;durP1;ratioP1;P2;durP2;ratioP2
64907;SDS011;51412;52.236;5.188;2022-07-06T00:01:58;5.45;;;3.40;;
64907;SDS011;51412;52.236;5.188;2022-07-06T00:04:25;6.63;;;2.85;;
64907;SDS011;51412;52.236;5.188;2022-07-06T00:06:51;6.65;;;2.75;;
64907;SDS011;51412;52.236;5.188;2022-07-06T00:09:18;5.97;;;2.80;;
64907;SDS011;51412;52.236;5.188;2022-07-06T00:11:44;4.57;;;2.75;;
64907;SDS011;51412;52.236;5.188;2022-07-06T00:14:12;3.60;;;2.38;;
64907;SDS011;51412;52.236;5.188;2022-07-06T00:16:39;6.70;;;2.70;;
64907;SDS011;51412;52.236;5.188;2022-07-06T00:19:05;3.92;;;2.63;;
64907;SDS011;51412;52.236;5.188;2022-07-06T00:21:32;7.25;;;3.13;;
64907;SDS011;51412;52.236;5.188;2022-07-06T00:23:58;6.28;;;2.97;;
64907;SDS011;51412;52.236;5.188;2022-07-06T00:26:26;3.78;;;2.67;;
64907;SDS011;51412;52.236;5.188;2022-07-06T00:28:52;7.10;;;2.80;;
64907;SDS011;51412;52.236;5.188;2022-07-06T00:31:20;4.65;;;2.53;;
64907;SDS011;51412;52.236;5.188;2022-07-06T00:33:46;4.20;;;2.70;;
64907;SDS011;51412;52.236;5.188;2022-07-06T00:36:13;5.22;;;2.95;;
64907;SDS011;51412;52.236;5.188;2022-07-06T00:38:40;6.55;;;2.67;;
64907;SDS011;51412;52.236;5.188;2022-07-06T00:41:07;5.93;;;2.78;;
64907;SDS011;51412;52.236;5.188;2022-07-06T00:43:47;9.30;;;2.80;;
64907;SDS011;51412;52.236;5.188;2022-07-06T00:46:19;4.57;;;2.70;;
64907;SDS011;51412;52.236;5.188;2022-07-06T00:48:49;5.20;;;2.85;;
64907;SDS011;51412;52.236;5.188;2022-07-06T00:51:15;3.70;;;2.55;;
64907;SDS011;51412;52.236;5.188;2022-07-06T00:53:42;7.07;;;2.75;;
64907;SDS011;51412;52.236;5.188;2022-07-06T00:56:08;6.15;;;2.58;;
64907;SDS011;51412;52.236;5.188;2022-07-06T00:58:36;3.72;;;2.53;;
64907;SDS011;51412;52.236;5.188;2022-07-06T01:01:02;6.68;;;2.60;;
64907;SDS011;51412;52.236;5.188;2022-07-06T01:03:30;5.53;;;2.67;;
64907;SDS011;51412;52.236;5.188;2022-07-06T01:05:58;7.20;;;2.80;;
64907;SDS011;51412;52.236;5.188;2022-07-06T01:08:24;6.07;;;2.60;;
64907;SDS011;51412;52.236;5.188;2022-07-06T01:10:51;6.55;;;2.80;;
64907;SDS011;51412;52.236;5.188;2022-07-06T01:13:17;8.45;;;3.28;;
64907;SDS011;51412;52.236;5.188;2022-07-06T01:15:44;3.65;;;2.60;;
64907;SDS011;51412;52.236;5.188;2022-07-06T01:18:10;5.97;;;2.38;;
64907;SDS011;51412;52.236;5.188;2022-07-06T01:20:38;6.25;;;2.95;;
64907;SDS011;51412;52.236;5.188;2022-07-06T01:23:05;4.88;;;2.50;;
64907;SDS011;51412;52.236;5.188;2022-07-06T01:25:32;6.75;;;2.92;;
64907;SDS011;51412;52.236;5.188;2022-07-06T01:27:58;2.58;;;2.20;;
64907;SDS011;51412;52.236;5.188;2022-07-06T01:30:25;5.03;;;2.58;;
64907;SDS011;51412;52.236;5.188;2022-07-06T01:32:51;6.20;;;2.38;;
64907;SDS011;51412;52.236;5.188;2022-07-06T01:35:18;2.85;;;2.40;;
64907;SDS011;51412;52.236;5.188;2022-07-06T01:37:46;6.10;;;2.65;;
64907;SDS011;51412;52.236;5.188;2022-07-06T01:40:13;4.30;;;2.50;;
64907;SDS011;51412;52.236;5.188;2022-07-06T01:42:39;4.70;;;2.50;;
64907;SDS011;51412;52.236;5.188;2022-07-06T01:45:06;4.75;;;2.60;;
64907;SDS011;51412;52.236;5.188;2022-07-06T01:47:34;3.67;;;2.28;;
64907;SDS011;51412;52.236;5.188;2022-07-06T01:50:00;5.45;;;2.22;;
64907;SDS011;51412;52.236;5.188;2022-07-06T01:52:29;4.50;;;2.67;;
64907;SDS011;51412;52.236;5.188;2022-07-06T01:54:57;3.67;;;2.45;;
64907;SDS011;51412;52.236;5.188;2022-07-06T01:57:24;5.85;;;2.55;;
64907;SDS011;51412;52.236;5.188;2022-07-06T01:59:50;8.82;;;3.38;;
64907;SDS011;51412;52.236;5.188;2022-07-06T02:02:17;4.85;;;2.97;;
64907;SDS011;51412;52.236;5.188;2022-07-06T02:04:43;6.80;;;2.65;;
64907;SDS011;51412;52.236;5.188;2022-07-06T02:07:10;6.90;;;2.47;;
64907;SDS011;51412;52.236;5.188;2022-07-06T02:09:36;5.53;;;2.33;;
64907;SDS011;51412;52.236;5.188;2022-07-06T02:12:05;3.97;;;3.15;;
64907;SDS011;51412;52.236;5.188;2022-07-06T02:14:31;5.78;;;2.22;;
64907;SDS011;51412;52.236;5.188;2022-07-06T02:16:58;4.03;;;2.22;;
64907;SDS011;51412;52.236;5.188;2022-07-06T02:19:24;8.60;;;2.80;;
64907;SDS011;51412;52.236;5.188;2022-07-06T02:21:51;4.30;;;2.33;;
64907;SDS011;51412;52.236;5.188;2022-07-06T02:24:17;7.57;;;2.65;;
64907;SDS011;51412;52.236;5.188;2022-07-06T02:26:44;4.15;;;2.83;;
64907;SDS011;51412;52.236;5.188;2022-07-06T02:29:11;5.22;;;2.47;;
64907;SDS011;51412;52.236;5.188;2022-07-06T02:31:38;4.63;;;2.40;;
64907;SDS011;51412;52.236;5.188;2022-07-06T02:34:04;4.18;;;2.38;;
64907;SDS011;51412;52.236;5.188;2022-07-06T02:36:31;6.90;;;2.40;;
64907;SDS011;51412;52.236;5.188;2022-07-06T02:38:57;8.07;;;2.80;;
64907;SDS011;51412;52.236;5.188;2022-07-06T02:41:24;4.53;;;2.17;;
64907;SDS011;51412;52.236;5.188;2022-07-06T02:43:50;4.97;;;2.28;;
64907;SDS011;51412;52.236;5.188;2022-07-06T02:46:18;6.00;;;2.72;;
64907;SDS011;51412;52.236;5.188;2022-07-06T02:48:45;5.95;;;2.45;;
64907;SDS011;51412;52.236;5.188;2022-07-06T02:51:11;8.25;;;2.90;;
64907;SDS011;51412;52.236;5.188;2022-07-06T02:53:38;6.35;;;2.65;;
64907;SDS011;51412;52.236;5.188;2022-07-06T02:56:04;10.68;;;3.25;;
64907;SDS011;51412;52.236;5.188;2022-07-06T02:58:31;6.20;;;2.17;;
64907;SDS011;51412;52.236;5.188;2022-07-06T03:00:57;5.38;;;2.50;;
64907;SDS011;51412;52.236;5.188;2022-07-06T03:03:26;4.93;;;2.38;;
64907;SDS011;51412;52.236;5.188;2022-07-06T03:05:52;3.42;;;1.98;;
64907;SDS011;51412;52.236;5.188;2022-07-06T03:08:20;6.15;;;3.03;;
64907;SDS011;51412;52.236;5.188;2022-07-06T03:10:46;7.40;;;2.28;;
64907;SDS011;51412;52.236;5.188;2022-07-06T03:13:13;5.75;;;2.40;;
64907;SDS011;51412;52.236;5.188;2022-07-06T03:15:39;2.63;;;1.92;;
64907;SDS011;51412;52.236;5.188;2022-07-06T03:18:06;4.45;;;2.20;;
64907;SDS011;51412;52.236;5.188;2022-07-06T03:20:34;6.65;;;2.17;;
64907;SDS011;51412;52.236;5.188;2022-07-06T03:23:00;5.50;;;2.30;;
64907;SDS011;51412;52.236;5.188;2022-07-06T03:25:27;3.92;;;2.40;;
64907;SDS011;51412;52.236;5.188;2022-07-06T03:27:53;3.15;;;2.17;;
64907;SDS011;51412;52.236;5.188;2022-07-06T03:30:19;3.55;;;2.17;;
64907;SDS011;51412;52.236;5.188;2022-07-06T03:32:46;5.72;;;2.20;;
64907;SDS011;51412;52.236;5.188;2022-07-06T03:35:12;4.75;;;2.60;;
64907;SDS011;51412;52.236;5.188;2022-07-06T03:37:40;4.03;;;2.08;;
64907;SDS011;51412;52.236;5.188;2022-07-06T03:40:07;3.42;;;2.30;;
64907;SDS011;51412;52.236;5.188;2022-07-06T03:42:35;5.00;;;2.30;;
64907;SDS011;51412;52.236;5.188;2022-07-06T03:45:01;2.65;;;2.03;;
64907;SDS011;51412;52.236;5.188;2022-07-06T03:47:28;7.18;;;2.65;;
64907;SDS011;51412;52.236;5.188;2022-07-06T03:49:55;5.50;;;2.42;;
64907;SDS011;51412;52.236;5.188;2022-07-06T03:52:21;6.32;;;2.20;;
64907;SDS011;51412;52.236;5.188;2022-07-06T03:54:49;11.70;;;2.70;;
64907;SDS011;51412;52.236;5.188;2022-07-06T03:57:16;5.38;;;2.10;;
64907;SDS011;51412;52.236;5.188;2022-07-06T03:59:42;3.45;;;2.20;;
64907;SDS011;51412;52.236;5.188;2022-07-06T04:02:08;5.75;;;2.05;;
64907;SDS011;51412;52.236;5.188;2022-07-06T04:04:35;6.25;;;2.33;;
64907;SDS011;51412;52.236;5.188;2022-07-06T04:07:02;6.05;;;2.22;;
64907;SDS011;51412;52.236;5.188;2022-07-06T04:09:28;7.32;;;2.40;;
64907;SDS011;51412;52.236;5.188;2022-07-06T04:11:56;5.55;;;2.55;;
64907;SDS011;51412;52.236;5.188;2022-07-06T04:14:23;5.82;;;2.20;;
64907;SDS011;51412;52.236;5.188;2022-07-06T04:16:50;7.00;;;2.25;;
64907;SDS011;51412;52.236;5.188;2022-07-06T04:19:17;8.18;;;2.58;;
64907;SDS011;51412;52.236;5.188;2022-07-06T04:21:43;5.18;;;2.33;;
64907;SDS011;51412;52.236;5.188;2022-07-06T04:24:09;5.15;;;2.45;;
64907;SDS011;51412;52.236;5.188;2022-07-06T04:26:36;3.53;;;1.95;;
64907;SDS011;51412;52.236;5.188;2022-07-06T04:29:04;2.45;;;2.25;;
64907;SDS011;51412;52.236;5.188;2022-07-06T04:31:30;4.38;;;2.45;;
64907;SDS011;51412;52.236;5.188;2022-07-06T04:33:56;6.53;;;2.50;;
64907;SDS011;51412;52.236;5.188;2022-07-06T04:36:23;3.05;;;2.20;;
64907;SDS011;51412;52.236;5.188;2022-07-06T04:38:49;5.15;;;2.30;;
64907;SDS011;51412;52.236;5.188;2022-07-06T04:41:16;4.25;;;2.08;;
64907;SDS011;51412;52.236;5.188;2022-07-06T04:43:42;5.78;;;1.92;;
64907;SDS011;51412;52.236;5.188;2022-07-06T04:46:11;7.13;;;2.55;;
64907;SDS011;51412;52.236;5.188;2022-07-06T04:48:37;3.90;;;2.30;;
64907;SDS011;51412;52.236;5.188;2022-07-06T04:51:04;2.55;;;1.88;;
64907;SDS011;51412;52.236;5.188;2022-07-06T04:53:30;4.97;;;2.30;;
64907;SDS011;51412;52.236;5.188;2022-07-06T04:55:57;3.80;;;2.28;;
64907;SDS011;51412;52.236;5.188;2022-07-06T04:58:24;2.80;;;1.90;;
64907;SDS011;51412;52.236;5.188;2022-07-06T05:00:52;3.65;;;2.25;;
64907;SDS011;51412;52.236;5.188;2022-07-06T05:03:20;5.28;;;2.42;;
64907;SDS011;51412;52.236;5.188;2022-07-06T05:05:46;6.75;;;2.58;;
64907;SDS011;51412;52.236;5.188;2022-07-06T05:08:13;3.85;;;2.20;;
64907;SDS011;51412;52.236;5.188;2022-07-06T05:10:40;5.55;;;1.80;;
64907;SDS011;51412;52.236;5.188;2022-07-06T05:13:06;3.80;;;2.10;;
64907;SDS011;51412;52.236;5.188;2022-07-06T05:15:33;3.58;;;2.30;;
64907;SDS011;51412;52.236;5.188;2022-07-06T05:17:59;7.78;;;2.53;;
64907;SDS011;51412;52.236;5.188;2022-07-06T05:20:27;5.47;;;2.40;;
64907;SDS011;51412;52.236;5.188;2022-07-06T05:22:53;4.00;;;2.30;;
64907;SDS011;51412;52.236;5.188;2022-07-06T05:25:20;4.70;;;2.88;;
64907;SDS011;51412;52.236;5.188;2022-07-06T05:27:46;6.68;;;3.13;;
64907;SDS011;51412;52.236;5.188;2022-07-06T05:30:13;3.35;;;2.25;;
64907;SDS011;51412;52.236;5.188;2022-07-06T05:32:40;5.55;;;2.30;;
64907;SDS011;51412;52.236;5.188;2022-07-06T05:35:07;3.13;;;2.17;;
64907;SDS011;51412;52.236;5.188;2022-07-06T05:37:35;4.47;;;2.30;;
64907;SDS011;51412;52.236;5.188;2022-07-06T05:40:03;3.83;;;1.90;;
64907;SDS011;51412;52.236;5.188;2022-07-06T05:42:30;3.10;;;2.08;;
64907;SDS011;51412;52.236;5.188;2022-07-06T05:44:56;7.15;;;2.70;;
64907;SDS011;51412;52.236;5.188;2022-07-06T05:47:23;4.40;;;2.30;;
64907;SDS011;51412;52.236;5.188;2022-07-06T05:50:07;6.15;;;1.95;;
64907;SDS011;51412;52.236;5.188;2022-07-06T05:52:42;4.93;;;2.28;;
64907;SDS011;51412;52.236;5.188;2022-07-06T05:55:11;7.32;;;2.35;;
64907;SDS011;51412;52.236;5.188;2022-07-06T05:57:38;11.00;;;2.50;;
64907;SDS011;51412;52.236;5.188;2022-07-06T06:00:05;9.07;;;2.50;;
64907;SDS011;51412;52.236;5.188;2022-07-06T06:02:36;4.47;;;2.50;;
64907;SDS011;51412;52.236;5.188;2022-07-06T06:05:04;8.55;;;1.98;;
64907;SDS011;51412;52.236;5.188;2022-07-06T06:07:32;9.88;;;2.20;;
64907;SDS011;51412;52.236;5.188;2022-07-06T06:10:00;7.25;;;2.08;;
64907;SDS011;51412;52.236;5.188;2022-07-06T06:12:27;6.75;;;2.25;;
64907;SDS011;51412;52.236;5.188;2022-07-06T06:14:54;7.90;;;2.38;;
64907;SDS011;51412;52.236;5.188;2022-07-06T06:17:20;7.47;;;2.15;;
64907;SDS011;51412;52.236;5.188;2022-07-06T06:19:47;8.93;;;2.50;;
64907;SDS011;51412;52.236;5.188;2022-07-06T06:22:13;6.93;;;2.40;;
64907;SDS011;51412;52.236;5.188;2022-07-06T06:24:40;5.72;;;2.60;;
64907;SDS011;51412;52.236;5.188;2022-07-06T06:27:08;2.85;;;1.90;;
64907;SDS011;51412;52.236;5.188;2022-07-06T06:29:34;7.47;;;2.50;;
64907;SDS011;51412;52.236;5.188;2022-07-06T06:32:01;3.25;;;2.13;;
64907;SDS011;51412;52.236;5.188;2022-07-06T06:34:28;7.63;;;2.30;;
64907;SDS011;51412;52.236;5.188;2022-07-06T06:36:54;3.47;;;1.90;;
64907;SDS011;51412;52.236;5.188;2022-07-06T06:39:21;3.90;;;2.15;;
64907;SDS011;51412;52.236;5.188;2022-07-06T06:41:47;4.85;;;2.70;;
64907;SDS011;51412;52.236;5.188;2022-07-06T06:44:15;3.88;;;2.17;;
64907;SDS011;51412;52.236;5.188;2022-07-06T06:46:42;2.30;;;1.90;;
64907;SDS011;51412;52.236;5.188;2022-07-06T06:49:09;3.92;;;2.15;;
64907;SDS011;51412;52.236;5.188;2022-07-06T06:51:36;5.32;;;2.20;;
64907;SDS011;51412;52.236;5.188;2022-07-06T06:54:03;6.35;;;2.08;;
64907;SDS011;51412;52.236;5.188;2022-07-06T06:56:30;6.20;;;2.10;;
64907;SDS011;51412;52.236;5.188;2022-07-06T06:58:57;7.68;;;2.28;;
64907;SDS011;51412;52.236;5.188;2022-07-06T07:01:24;5.78;;;2.70;;
64907;SDS011;51412;52.236;5.188;2022-07-06T07:03:51;5.65;;;2.22;;
64907;SDS011;51412;52.236;5.188;2022-07-06T07:06:18;2.88;;;1.88;;
64907;SDS011;51412;52.236;5.188;2022-07-06T07:08:44;4.80;;;2.50;;
64907;SDS011;51412;52.236;5.188;2022-07-06T07:11:10;5.10;;;2.20;;
64907;SDS011;51412;52.236;5.188;2022-07-06T07:13:37;5.15;;;2.40;;
64907;SDS011;51412;52.236;5.188;2022-07-06T07:16:04;4.25;;;1.90;;
64907;SDS011;51412;52.236;5.188;2022-07-06T07:18:32;7.43;;;2.30;;
64907;SDS011;51412;52.236;5.188;2022-07-06T07:20:58;4.50;;;2.00;;
64907;SDS011;51412;52.236;5.188;2022-07-06T07:23:25;3.63;;;1.63;;
64907;SDS011;51412;52.236;5.188;2022-07-06T07:25:53;5.15;;;1.77;;
64907;SDS011;51412;52.236;5.188;2022-07-06T07:28:19;3.35;;;1.88;;
64907;SDS011;51412;52.236;5.188;2022-07-06T07:30:46;2.45;;;2.20;;
64907;SDS011;51412;52.236;5.188;2022-07-06T07:33:12;2.60;;;1.85;;
64907;SDS011;51412;52.236;5.188;2022-07-06T07:35:40;4.43;;;2.22;;
64907;SDS011;51412;52.236;5.188;2022-07-06T07:38:06;4.07;;;1.98;;
64907;SDS011;51412;52.236;5.188;2022-07-06T07:40:33;4.78;;;2.20;;
64907;SDS011;51412;52.236;5.188;2022-07-06T07:43:00;3.45;;;2.00;;
64907;SDS011;51412;52.236;5.188;2022-07-06T07:45:27;3.95;;;1.92;;
64907;SDS011;51412;52.236;5.188;2022-07-06T07:47:53;2.78;;;1.95;;
64907;SDS011;51412;52.236;5.188;2022-07-06T07:50:20;3.58;;;1.90;;
64907;SDS011;51412;52.236;5.188;2022-07-06T07:52:48;6.07;;;2.50;;
64907;SDS011;51412;52.236;5.188;2022-07-06T07:55:14;5.53;;;2.38;;
64907;SDS011;51412;52.236;5.188;2022-07-06T07:57:41;4.32;;;2.10;;
64907;SDS011;51412;52.236;5.188;2022-07-06T08:00:08;6.32;;;2.53;;
64907;SDS011;51412;52.236;5.188;2022-07-06T08:02:35;2.83;;;1.83;;
64907;SDS011;51412;52.236;5.188;2022-07-06T08:05:02;1.73;;;1.58;;
64907;SDS011;51412;52.236;5.188;2022-07-06T08:07:29;3.20;;;2.08;;
64907;SDS011;51412;52.236;5.188;2022-07-06T08:09:57;4.20;;;2.10;;
64907;SDS011;51412;52.236;5.188;2022-07-06T08:12:23;5.20;;;2.25;;
64907;SDS011;51412;52.236;5.188;2022-07-06T08:14:50;4.35;;;2.70;;
64907;SDS011;51412;52.236;5.188;2022-07-06T08:17:17;3.28;;;2.00;;
64907;SDS011;51412;52.236;5.188;2022-07-06T08:19:43;3.88;;;2.20;;
64907;SDS011;51412;52.236;5.188;2022-07-06T08:22:10;5.07;;;2.60;;
64907;SDS011;51412;52.236;5.188;2022-07-06T08:24:36;3.00;;;2.17;;
64907;SDS011;51412;52.236;5.188;2022-07-06T08:27:04;3.33;;;2.08;;
64907;SDS011;51412;52.236;5.188;2022-07-06T08:29:31;4.93;;;2.13;;
64907;SDS011;51412;52.236;5.188;2022-07-06T08:31:57;6.68;;;2.33;;
64907;SDS011;51412;52.236;5.188;2022-07-06T08:34:24;2.78;;;2.08;;
64907;SDS011;51412;52.236;5.188;2022-07-06T08:36:50;3.35;;;1.90;;
64907;SDS011;51412;52.236;5.188;2022-07-06T08:39:17;4.40;;;2.03;;
64907;SDS011;51412;52.236;5.188;2022-07-06T08:41:43;5.15;;;2.40;;
64907;SDS011;51412;52.236;5.188;2022-07-06T08:44:14;3.17;;;2.00;;
64907;SDS011;51412;52.236;5.188;2022-07-06T08:46:41;6.72;;;2.40;;
64907;SDS011;51412;52.236;5.188;2022-07-06T08:49:08;2.22;;;2.00;;
64907;SDS011;51412;52.236;5.188;2022-07-06T08:51:38;3.50;;;2.45;;
64907;SDS011;51412;52.236;5.188;2022-07-06T08:54:06;2.17;;;1.88;;
64907;SDS011;51412;52.236;5.188;2022-07-06T08:56:33;4.72;;;1.90;;
64907;SDS011;51412;52.236;5.188;2022-07-06T08:59:00;3.33;;;1.80;;
64907;SDS011;51412;52.236;5.188;2022-07-06T09:01:28;2.22;;;1.92;;
64907;SDS011;51412;52.236;5.188;2022-07-06T09:03:55;2.22;;;1.95;;
64907;SDS011;51412;52.236;5.188;2022-07-06T09:06:23;6.00;;;2.25;;
64907;SDS011;51412;52.236;5.188;2022-07-06T09:08:50;3.33;;;2.15;;
64907;SDS011;51412;52.236;5.188;2022-07-06T09:11:19;2.22;;;1.60;;
64907;SDS011;51412;52.236;5.188;2022-07-06T09:13:47;2.75;;;1.70;;
64907;SDS011;51412;52.236;5.188;2022-07-06T09:16:14;2.90;;;1.80;;
64907;SDS011;51412;52.236;5.188;2022-07-06T09:18:44;3.22;;;1.83;;
64907;SDS011;51412;52.236;5.188;2022-07-06T09:21:12;3.92;;;1.70;;
64907;SDS011;51412;52.236;5.188;2022-07-06T09:23:52;2.70;;;1.90;;
64907;SDS011;51412;52.236;5.188;2022-07-06T09:26:19;2.85;;;1.98;;
64907;SDS011;51412;52.236;5.188;2022-07-06T09:28:46;4.28;;;2.20;;
64907;SDS011;51412;52.236;5.188;2022-07-06T09:31:12;3.17;;;1.80;;
64907;SDS011;51412;52.236;5.188;2022-07-06T09:33:39;2.05;;;1.60;;
64907;SDS011;51412;52.236;5.188;2022-07-06T09:39:14;2.17;;;1.95;;
64907;SDS011;51412;52.236;5.188;2022-07-06T09:41:41;3.08;;;1.63;;
64907;SDS011;51412;52.236;5.188;2022-07-06T09:44:08;4.90;;;1.77;;
64907;SDS011;51412;52.236;5.188;2022-07-06T09:46:37;2.35;;;1.70;;
64907;SDS011;51412;52.236;5.188;2022-07-06T09:49:07;2.80;;;1.90;;
64907;SDS011;51412;52.236;5.188;2022-07-06T09:51:35;5.97;;;1.90;;
64907;SDS011;51412;52.236;5.188;2022-07-06T09:54:03;2.47;;;1.58;;
64907;SDS011;51412;52.236;5.188;2022-07-06T09:56:36;3.80;;;2.05;;
64907;SDS011;51412;52.236;5.188;2022-07-06T09:59:05;4.05;;;1.90;;
64907;SDS011;51412;52.236;5.188;2022-07-06T10:01:34;3.35;;;2.00;;
64907;SDS011;51412;52.236;5.188;2022-07-06T10:04:01;2.97;;;1.70;;
64907;SDS011;51412;52.236;5.188;2022-07-06T10:06:29;3.05;;;1.83;;
64907;SDS011;51412;52.236;5.188;2022-07-06T10:08:55;2.55;;;1.65;;
64907;SDS011;51412;52.236;5.188;2022-07-06T10:11:24;2.85;;;1.55;;
64907;SDS011;51412;52.236;5.188;2022-07-06T10:13:52;2.10;;;1.40;;
64907;SDS011;51412;52.236;5.188;2022-07-06T10:16:21;2.80;;;1.63;;
64907;SDS011;51412;52.236;5.188;2022-07-06T10:18:49;4.45;;;1.70;;
64907;SDS011;51412;52.236;5.188;2022-07-06T10:21:18;4.60;;;1.88;;
64907;SDS011;51412;52.236;5.188;2022-07-06T10:23:47;3.45;;;1.90;;
64907;SDS011;51412;52.236;5.188;2022-07-06T10:26:15;2.72;;;1.60;;
64907;SDS011;51412;52.236;5.188;2022-07-06T10:28:43;3.72;;;1.77;;
64907;SDS011;51412;52.236;5.188;2022-07-06T10:31:11;1.67;;;1.48;;
64907;SDS011;51412;52.236;5.188;2022-07-06T10:33:39;1.88;;;1.77;;
64907;SDS011;51412;52.236;5.188;2022-07-06T10:36:07;3.45;;;1.67;;
64907;SDS011;51412;52.236;5.188;2022-07-06T10:38:34;3.85;;;2.03;;
64907;SDS011;51412;52.236;5.188;2022-07-06T10:41:03;2.03;;;1.60;;
64907;SDS011;51412;52.236;5.188;2022-07-06T10:43:32;3.78;;;1.83;;
64907;SDS011;51412;52.236;5.188;2022-07-06T10:46:04;4.35;;;1.85;;
64907;SDS011;51412;52.236;5.188;2022-07-06T10:48:34;4.50;;;2.35;;
64907;SDS011;51412;52.236;5.188;2022-07-06T10:51:01;3.10;;;2.00;;
64907;SDS011;51412;52.236;5.188;2022-07-06T10:53:30;2.70;;;1.70;;
64907;SDS011;51412;52.236;5.188;2022-07-06T10:55:59;4.40;;;1.88;;
64907;SDS011;51412;52.236;5.188;2022-07-06T10:58:36;4.03;;;2.40;;
64907;SDS011;51412;52.236;5.188;2022-07-06T11:01:05;2.97;;;1.92;;
64907;SDS011;51412;52.236;5.188;2022-07-06T11:03:33;3.65;;;2.00;;
64907;SDS011;51412;52.236;5.188;2022-07-06T11:06:01;4.20;;;1.90;;
64907;SDS011;51412;52.236;5.188;2022-07-06T11:11:21;4.75;;;1.73;;
64907;SDS011;51412;52.236;5.188;2022-07-06T11:13:51;4.68;;;2.00;;
64907;SDS011;51412;52.236;5.188;2022-07-06T11:16:19;3.40;;;1.77;;
64907;SDS011;51412;52.236;5.188;2022-07-06T11:18:47;2.42;;;1.90;;
64907;SDS011;51412;52.236;5.188;2022-07-06T11:21:18;3.85;;;2.10;;
64907;SDS011;51412;52.236;5.188;2022-07-06T11:23:46;4.70;;;2.13;;
64907;SDS011;51412;52.236;5.188;2022-07-06T11:26:14;4.80;;;2.30;;
64907;SDS011;51412;52.236;5.188;2022-07-06T11:28:41;3.75;;;1.95;;
64907;SDS011;51412;52.236;5.188;2022-07-06T11:31:09;2.58;;;1.80;;
64907;SDS011;51412;52.236;5.188;2022-07-06T11:33:36;2.55;;;1.80;;
64907;SDS011;51412;52.236;5.188;2022-07-06T11:36:16;2.03;;;1.80;;
64907;SDS011;51412;52.236;5.188;2022-07-06T11:38:44;5.57;;;2.03;;
64907;SDS011;51412;52.236;5.188;2022-07-06T11:41:12;4.65;;;1.92;;
64907;SDS011;51412;52.236;5.188;2022-07-06T11:43:40;1.77;;;1.60;;
64907;SDS011;51412;52.236;5.188;2022-07-06T11:46:21;4.65;;;2.10;;
64907;SDS011;51412;52.236;5.188;2022-07-06T11:48:49;3.60;;;2.00;;
64907;SDS011;51412;52.236;5.188;2022-07-06T11:51:16;4.90;;;2.25;;
64907;SDS011;51412;52.236;5.188;2022-07-06T11:53:43;2.97;;;2.20;;
64907;SDS011;51412;52.236;5.188;2022-07-06T11:56:11;4.70;;;2.30;;
64907;SDS011;51412;52.236;5.188;2022-07-06T11:58:39;4.20;;;2.42;;
64907;SDS011;51412;52.236;5.188;2022-07-06T12:01:08;4.53;;;2.58;;
64907;SDS011;51412;52.236;5.188;2022-07-06T12:03:37;5.00;;;2.30;;
64907;SDS011;51412;52.236;5.188;2022-07-06T12:06:04;3.45;;;2.30;;
64907;SDS011;51412;52.236;5.188;2022-07-06T12:08:32;4.35;;;2.00;;
64907;SDS011;51412;52.236;5.188;2022-07-06T12:11:06;3.83;;;1.90;;
64907;SDS011;51412;52.236;5.188;2022-07-06T12:13:35;5.68;;;1.90;;
64907;SDS011;51412;52.236;5.188;2022-07-06T12:16:08;3.88;;;1.83;;
64907;SDS011;51412;52.236;5.188;2022-07-06T12:18:37;20.30;;;4.00;;
64907;SDS011;51412;52.236;5.188;2022-07-06T12:21:06;3.75;;;1.80;;
64907;SDS011;51412;52.236;5.188;2022-07-06T12:23:41;3.97;;;2.03;;
64907;SDS011;51412;52.236;5.188;2022-07-06T12:26:09;5.35;;;2.15;;
64907;SDS011;51412;52.236;5.188;2022-07-06T12:28:36;3.42;;;2.38;;
64907;SDS011;51412;52.236;5.188;2022-07-06T12:31:03;5.30;;;2.00;;
64907;SDS011;51412;52.236;5.188;2022-07-06T12:33:29;4.65;;;2.22;;
64907;SDS011;51412;52.236;5.188;2022-07-06T12:35:57;5.35;;;2.40;;
64907;SDS011;51412;52.236;5.188;2022-07-06T12:38:35;5.78;;;2.30;;
64907;SDS011;51412;52.236;5.188;2022-07-06T12:41:01;4.55;;;1.90;;
64907;SDS011;51412;52.236;5.188;2022-07-06T12:43:35;6.10;;;2.30;;
64907;SDS011;51412;52.236;5.188;2022-07-06T12:48:55;3.42;;;2.22;;
64907;SDS011;51412;52.236;5.188;2022-07-06T12:51:23;5.10;;;2.05;;
64907;SDS011;51412;52.236;5.188;2022-07-06T12:53:50;3.25;;;1.95;;
64907;SDS011;51412;52.236;5.188;2022-07-06T12:56:17;3.15;;;1.90;;
64907;SDS011;51412;52.236;5.188;2022-07-06T12:58:57;5.63;;;2.03;;
64907;SDS011;51412;52.236;5.188;2022-07-06T13:01:23;2.65;;;2.10;;
64907;SDS011;51412;52.236;5.188;2022-07-06T13:03:53;6.22;;;2.22;;
64907;SDS011;51412;52.236;5.188;2022-07-06T13:06:30;6.85;;;2.10;;
64907;SDS011;51412;52.236;5.188;2022-07-06T13:08:57;3.08;;;2.10;;
64907;SDS011;51412;52.236;5.188;2022-07-06T13:11:23;3.33;;;2.10;;
64907;SDS011;51412;52.236;5.188;2022-07-06T13:13:50;7.15;;;2.33;;
64907;SDS011;51412;52.236;5.188;2022-07-06T13:16:17;6.05;;;2.00;;
64907;SDS011;51412;52.236;5.188;2022-07-06T13:18:44;3.75;;;2.28;;
64907;SDS011;51412;52.236;5.188;2022-07-06T13:21:10;7.28;;;2.30;;
64907;SDS011;51412;52.236;5.188;2022-07-06T13:23:38;4.55;;;2.15;;
64907;SDS011;51412;52.236;5.188;2022-07-06T13:26:05;4.03;;;2.40;;
64907;SDS011;51412;52.236;5.188;2022-07-06T13:28:32;5.82;;;2.30;;
64907;SDS011;51412;52.236;5.188;2022-07-06T13:30:59;3.95;;;2.42;;
64907;SDS011;51412;52.236;5.188;2022-07-06T13:33:25;3.97;;;2.40;;
64907;SDS011;51412;52.236;5.188;2022-07-06T13:35:52;5.47;;;2.55;;
64907;SDS011;51412;52.236;5.188;2022-07-06T13:38:18;8.68;;;2.67;;
64907;SDS011;51412;52.236;5.188;2022-07-06T13:40:46;4.38;;;2.35;;
64907;SDS011;51412;52.236;5.188;2022-07-06T13:43:13;3.80;;;2.28;;
64907;SDS011;51412;52.236;5.188;2022-07-06T13:45:39;3.58;;;2.20;;
64907;SDS011;51412;52.236;5.188;2022-07-06T13:48:06;4.03;;;2.42;;
64907;SDS011;51412;52.236;5.188;2022-07-06T13:50:33;3.75;;;2.25;;
64907;SDS011;51412;52.236;5.188;2022-07-06T13:52:59;5.75;;;2.45;;
64907;SDS011;51412;52.236;5.188;2022-07-06T13:55:25;3.85;;;1.90;;
64907;SDS011;51412;52.236;5.188;2022-07-06T13:57:53;5.38;;;2.13;;
64907;SDS011;51412;52.236;5.188;2022-07-06T14:00:20;5.05;;;2.30;;
64907;SDS011;51412;52.236;5.188;2022-07-06T14:02:46;3.55;;;2.38;;
64907;SDS011;51412;52.236;5.188;2022-07-06T14:05:13;4.53;;;2.50;;
64907;SDS011;51412;52.236;5.188;2022-07-06T14:07:39;5.28;;;2.88;;
64907;SDS011;51412;52.236;5.188;2022-07-06T14:10:06;7.60;;;2.80;;
64907;SDS011;51412;52.236;5.188;2022-07-06T14:12:33;6.60;;;2.80;;
64907;SDS011;51412;52.236;5.188;2022-07-06T14:15:00;5.55;;;3.13;;
64907;SDS011;51412;52.236;5.188;2022-07-06T14:17:27;5.63;;;2.58;;
64907;SDS011;51412;52.236;5.188;2022-07-06T14:19:53;5.60;;;2.53;;
64907;SDS011;51412;52.236;5.188;2022-07-06T14:22:20;2.65;;;2.40;;
64907;SDS011;51412;52.236;5.188;2022-07-06T14:24:46;3.88;;;2.92;;
64907;SDS011;51412;52.236;5.188;2022-07-06T14:27:13;5.68;;;2.72;;
64907;SDS011;51412;52.236;5.188;2022-07-06T14:29:39;6.85;;;3.20;;
64907;SDS011;51412;52.236;5.188;2022-07-06T14:32:07;3.42;;;2.55;;
64907;SDS011;51412;52.236;5.188;2022-07-06T14:34:34;4.80;;;2.75;;
64907;SDS011;51412;52.236;5.188;2022-07-06T14:37:00;6.72;;;2.80;;
64907;SDS011;51412;52.236;5.188;2022-07-06T14:39:27;8.57;;;2.80;;
64907;SDS011;51412;52.236;5.188;2022-07-06T14:41:56;8.10;;;3.30;;
64907;SDS011;51412;52.236;5.188;2022-07-06T14:44:24;5.93;;;2.83;;
64907;SDS011;51412;52.236;5.188;2022-07-06T14:46:51;9.20;;;3.22;;
64907;SDS011;51412;52.236;5.188;2022-07-06T14:49:20;5.88;;;2.90;;
64907;SDS011;51412;52.236;5.188;2022-07-06T14:51:47;4.18;;;2.95;;
64907;SDS011;51412;52.236;5.188;2022-07-06T14:54:17;11.30;;;3.40;;
64907;SDS011;51412;52.236;5.188;2022-07-06T14:56:43;14.18;;;4.03;;
64907;SDS011;51412;52.236;5.188;2022-07-06T14:59:10;9.65;;;3.58;;